createdAt,value
2016-11-23T00:00:59.699Z,0
2016-11-23T00:02:08.706Z,0
2016-11-23T00:03:18.005Z,0
2016-11-23T00:04:26.725Z,0
2016-11-23T00:05:35.425Z,0
2016-11-23T00:06:45.036Z,0
2016-11-23T00:07:53.728Z,0
2016-11-23T00:09:02.749Z,0
2016-11-23T00:10:12.371Z,0
2016-11-23T00:11:21.364Z,0
2016-11-23T00:12:30.700Z,0
2016-11-23T00:13:40.015Z,0
2016-11-23T00:14:49.008Z,0
2016-11-23T00:15:58.330Z,0
2016-11-23T00:17:07.334Z,0
2016-11-23T00:18:16.319Z,0
2016-11-23T00:19:25.615Z,0
2016-11-23T00:20:34.642Z,0
2016-11-23T00:21:43.638Z,0
2016-11-23T00:22:52.341Z,0
2016-11-23T00:24:01.043Z,0
2016-11-23T00:25:09.740Z,0
2016-11-23T00:26:19.060Z,0
2016-11-23T00:27:28.358Z,0
2016-11-23T00:28:37.656Z,0
2016-11-23T00:29:46.720Z,0
2016-11-23T00:30:55.441Z,0
2016-11-23T00:32:04.136Z,0
2016-11-23T00:33:12.874Z,0
2016-11-23T00:34:22.201Z,0
2016-11-23T00:35:30.914Z,0
2016-11-23T00:36:39.930Z,0
2016-11-23T00:37:49.856Z,0
2016-11-23T00:38:58.551Z,0
2016-11-23T00:40:08.170Z,0
2016-11-23T00:41:16.856Z,0
2016-11-23T00:42:26.156Z,0
2016-11-23T00:43:35.501Z,0
2016-11-23T00:44:44.192Z,0
2016-11-23T00:45:53.200Z,0
2016-11-23T00:47:02.197Z,0
2016-11-23T00:48:11.502Z,0
2016-11-23T00:49:20.803Z,0
2016-11-23T00:50:29.494Z,0
2016-11-23T00:51:38.481Z,0
2016-11-23T00:52:47.500Z,0
2016-11-23T00:53:56.506Z,0
2016-11-23T00:55:05.822Z,0
2016-11-23T00:56:15.133Z,0
2016-11-23T00:57:24.129Z,0
2016-11-23T00:58:32.841Z,0
2016-11-23T00:59:41.843Z,0
2016-11-23T01:00:50.854Z,0
2016-11-23T01:01:59.588Z,0
2016-11-23T01:03:08.892Z,0
2016-11-23T01:04:18.199Z,0
2016-11-23T01:05:27.494Z,0
2016-11-23T01:06:36.557Z,0
2016-11-23T01:07:45.885Z,0
2016-11-23T01:08:54.577Z,0
2016-11-23T01:10:03.580Z,0
2016-11-23T01:11:12.262Z,0
2016-11-23T01:12:21.258Z,0
2016-11-23T01:13:30.588Z,0
2016-11-23T01:14:39.587Z,0
2016-11-23T01:15:48.599Z,0
2016-11-23T01:16:57.930Z,0
2016-11-23T01:18:07.250Z,0
2016-11-23T01:19:16.562Z,0
2016-11-23T01:20:25.267Z,0
2016-11-23T01:21:34.896Z,0
2016-11-23T01:22:43.589Z,0
2016-11-23T01:23:52.904Z,0
2016-11-23T01:25:01.613Z,0
2016-11-23T01:26:10.627Z,0
2016-11-23T01:27:19.929Z,0
2016-11-23T01:28:29.530Z,0
2016-11-23T01:29:38.858Z,0
2016-11-23T01:30:48.169Z,0
2016-11-23T01:31:57.188Z,0
2016-11-23T01:33:06.496Z,0
2016-11-23T01:34:15.189Z,0
2016-11-23T01:35:24.186Z,0
2016-11-23T01:36:33.215Z,0
2016-11-23T01:37:42.554Z,0
2016-11-23T01:38:52.189Z,0
2016-11-23T01:40:01.178Z,0
2016-11-23T01:41:09.876Z,0
2016-11-23T01:42:18.888Z,0
2016-11-23T01:43:28.194Z,0
2016-11-23T01:44:37.199Z,0
2016-11-23T01:45:46.509Z,0
2016-11-23T01:46:55.823Z,0
2016-11-23T01:48:04.532Z,0
2016-11-23T01:49:13.538Z,0
2016-11-23T01:50:22.543Z,0
2016-11-23T01:51:31.537Z,0
2016-11-23T01:52:40.229Z,0
2016-11-23T01:53:49.526Z,0
2016-11-23T01:54:58.530Z,0
2016-11-23T01:56:07.546Z,0
2016-11-23T01:57:16.267Z,0
2016-11-23T01:58:25.032Z,0
2016-11-23T01:59:34.329Z,0
2016-11-23T02:00:43.020Z,0
2016-11-23T02:01:52.323Z,0
2016-11-23T02:03:01.335Z,0
2016-11-23T02:04:10.037Z,0
2016-11-23T02:05:19.028Z,0
2016-11-23T02:06:28.013Z,0
2016-11-23T02:07:37.046Z,0
2016-11-23T02:08:46.352Z,0
2016-11-23T02:09:55.039Z,0
2016-11-23T02:11:04.027Z,0
2016-11-23T02:12:12.731Z,0
2016-11-23T02:13:22.027Z,0
2016-11-23T02:14:31.031Z,0
2016-11-23T02:15:39.721Z,0
2016-11-23T02:16:48.417Z,0
2016-11-23T02:17:57.435Z,0
2016-11-23T02:19:06.132Z,0
2016-11-23T02:20:15.142Z,0
2016-11-23T02:21:23.831Z,0
2016-11-23T02:22:32.846Z,0
2016-11-23T02:23:42.156Z,0
2016-11-23T02:24:50.872Z,0
2016-11-23T02:26:00.826Z,0
2016-11-23T02:27:09.829Z,0
2016-11-23T02:28:19.122Z,0
2016-11-23T02:29:28.124Z,0
2016-11-23T02:30:37.428Z,0
2016-11-23T02:31:46.120Z,0
2016-11-23T02:32:54.842Z,0
2016-11-23T02:34:04.165Z,0
2016-11-23T02:35:13.481Z,0
2016-11-23T02:36:22.472Z,0
2016-11-23T02:37:31.163Z,0
2016-11-23T02:38:40.154Z,0
2016-11-23T02:39:49.172Z,0
2016-11-23T02:40:58.186Z,0
2016-11-23T02:42:07.239Z,0
2016-11-23T02:43:15.929Z,0
2016-11-23T02:44:24.627Z,0
2016-11-23T02:45:33.322Z,0
2016-11-23T02:46:42.320Z,0
2016-11-23T02:47:51.012Z,0
2016-11-23T02:49:00.311Z,0
2016-11-23T02:50:08.995Z,0
2016-11-23T02:51:17.997Z,0
2016-11-23T02:52:27.029Z,0
2016-11-23T02:53:36.045Z,0
2016-11-23T02:54:44.737Z,0
2016-11-23T02:55:54.383Z,0
2016-11-23T02:57:03.698Z,0
2016-11-23T02:58:12.702Z,0
2016-11-23T02:59:22.036Z,0
2016-11-23T03:00:30.730Z,0
2016-11-23T03:01:39.728Z,0
2016-11-23T03:02:48.754Z,0
2016-11-23T03:03:58.094Z,0
2016-11-23T03:05:07.442Z,0
2016-11-23T03:06:16.763Z,0
2016-11-23T03:07:25.769Z,0
2016-11-23T03:08:34.473Z,0
2016-11-23T03:09:43.492Z,0
2016-11-23T03:10:52.481Z,0
2016-11-23T03:12:01.202Z,0
2016-11-23T03:13:09.912Z,0
2016-11-23T03:14:19.216Z,0
2016-11-23T03:15:27.902Z,0
2016-11-23T03:16:36.896Z,0
2016-11-23T03:17:45.886Z,0
2016-11-23T03:18:54.888Z,0
2016-11-23T03:20:03.586Z,0
2016-11-23T03:21:12.592Z,0
2016-11-23T03:22:21.593Z,0
2016-11-23T03:23:30.293Z,0
2016-11-23T03:24:39.599Z,0
2016-11-23T03:25:48.370Z,0
2016-11-23T03:26:57.405Z,0
2016-11-23T03:28:06.130Z,0
2016-11-23T03:29:15.484Z,0
2016-11-23T03:30:24.544Z,0
2016-11-23T03:31:33.542Z,0
2016-11-23T03:32:42.240Z,0
2016-11-23T03:33:51.612Z,0
2016-11-23T03:35:00.331Z,0
2016-11-23T03:36:09.046Z,0
2016-11-23T03:37:17.730Z,0
2016-11-23T03:38:26.754Z,0
2016-11-23T03:39:36.409Z,0
2016-11-23T03:40:45.770Z,0
2016-11-23T03:41:55.066Z,0
2016-11-23T03:43:04.065Z,0
2016-11-23T03:44:12.754Z,0
2016-11-23T03:45:21.774Z,0
2016-11-23T03:46:30.762Z,0
2016-11-23T03:47:39.445Z,0
2016-11-23T03:48:48.129Z,0
2016-11-23T03:49:57.742Z,0
2016-11-23T03:51:07.046Z,0
2016-11-23T03:52:16.072Z,0
2016-11-23T03:53:25.058Z,0
2016-11-23T03:54:33.740Z,0
2016-11-23T03:55:42.426Z,0
2016-11-23T03:56:51.728Z,0
2016-11-23T03:58:01.334Z,0
2016-11-23T03:59:10.325Z,0
2016-11-23T04:00:19.333Z,0
2016-11-23T04:01:28.655Z,0
2016-11-23T04:02:37.387Z,0
2016-11-23T04:03:59.147Z,0
2016-11-23T04:05:08.207Z,0
2016-11-23T04:06:16.896Z,0
2016-11-23T04:07:25.607Z,0
2016-11-23T04:08:34.918Z,0
2016-11-23T04:09:43.912Z,0
2016-11-23T04:10:53.232Z,0
2016-11-23T04:12:01.923Z,0
2016-11-23T04:13:11.544Z,0
2016-11-23T04:14:21.146Z,0
2016-11-23T04:15:30.162Z,0
2016-11-23T04:16:39.166Z,0
2016-11-23T04:17:48.173Z,0
2016-11-23T04:18:57.160Z,0
2016-11-23T04:20:06.787Z,0
2016-11-23T04:21:15.814Z,0
2016-11-23T04:22:24.545Z,0
2016-11-23T04:23:33.862Z,0
2016-11-23T04:24:42.555Z,0
2016-11-23T04:25:52.181Z,0
2016-11-23T04:27:01.489Z,0
2016-11-23T04:28:10.494Z,0
2016-11-23T04:29:19.506Z,0
2016-11-23T04:30:28.506Z,0
2016-11-23T04:31:37.191Z,0
2016-11-23T04:32:46.191Z,0
2016-11-23T04:33:55.202Z,0
2016-11-23T04:35:03.918Z,0
2016-11-23T04:36:12.611Z,0
2016-11-23T04:37:21.293Z,0
2016-11-23T04:38:30.584Z,0
2016-11-23T04:39:39.594Z,0
2016-11-23T04:40:48.293Z,0
2016-11-23T04:41:56.997Z,0
2016-11-23T04:43:06.000Z,0
2016-11-23T04:44:15.627Z,0
2016-11-23T04:45:24.345Z,0
2016-11-23T04:46:33.373Z,0
2016-11-23T04:47:42.085Z,0
2016-11-23T04:48:51.079Z,0
2016-11-23T04:49:59.764Z,0
2016-11-23T04:51:08.792Z,0
2016-11-23T04:52:17.798Z,0
2016-11-23T04:53:26.520Z,0
2016-11-23T04:54:35.871Z,0
2016-11-23T04:55:44.873Z,0
2016-11-23T04:56:53.570Z,0
2016-11-23T04:58:02.255Z,0
2016-11-23T04:59:10.960Z,0
2016-11-23T05:00:20.278Z,0
2016-11-23T05:01:29.299Z,0
2016-11-23T05:02:37.979Z,0
2016-11-23T05:03:46.978Z,0
2016-11-23T05:04:55.676Z,0
2016-11-23T05:06:04.671Z,0
2016-11-23T05:07:13.701Z,0
2016-11-23T05:08:22.720Z,0
2016-11-23T05:09:31.722Z,0
2016-11-23T05:10:41.021Z,0
2016-11-23T05:11:50.013Z,0
2016-11-23T05:12:59.017Z,0
2016-11-23T05:14:07.712Z,0
2016-11-23T05:15:16.717Z,0
2016-11-23T05:16:25.444Z,0
2016-11-23T05:17:34.455Z,0
2016-11-23T05:18:43.519Z,0
2016-11-23T05:19:52.507Z,0
2016-11-23T05:21:02.431Z,0
2016-11-23T05:22:11.150Z,0
2016-11-23T05:23:19.852Z,0
2016-11-23T05:24:29.470Z,0
2016-11-23T05:25:38.195Z,0
2016-11-23T05:26:47.806Z,0
2016-11-23T05:27:57.112Z,0
2016-11-23T05:29:06.459Z,0
2016-11-23T05:30:15.801Z,0
2016-11-23T05:31:25.107Z,0
2016-11-23T05:32:33.814Z,0
2016-11-23T05:33:43.449Z,0
2016-11-23T05:34:52.135Z,0
2016-11-23T05:36:00.832Z,0
2016-11-23T05:37:09.822Z,0
2016-11-23T05:38:18.516Z,0
2016-11-23T05:39:28.154Z,0
2016-11-23T05:40:37.204Z,0
2016-11-23T05:41:46.194Z,0
2016-11-23T05:42:55.203Z,0
2016-11-23T05:44:04.202Z,0
2016-11-23T05:45:13.200Z,0
2016-11-23T05:46:22.206Z,0
2016-11-23T05:47:31.213Z,0
2016-11-23T05:48:40.216Z,0
2016-11-23T05:49:48.900Z,0
2016-11-23T05:50:57.904Z,0
2016-11-23T05:52:06.917Z,0
2016-11-23T05:53:15.934Z,0
2016-11-23T05:54:24.936Z,0
2016-11-23T05:55:33.933Z,0
2016-11-23T05:56:43.237Z,0
2016-11-23T05:57:51.924Z,0
2016-11-23T05:59:00.941Z,0
2016-11-23T06:00:10.849Z,0
2016-11-23T06:01:20.158Z,0
2016-11-23T06:02:29.493Z,0
2016-11-23T06:03:38.176Z,0
2016-11-23T06:04:46.854Z,0
2016-11-23T06:05:56.163Z,0
2016-11-23T06:07:05.174Z,0
2016-11-23T06:08:13.863Z,0
2016-11-23T06:09:22.857Z,0
2016-11-23T06:10:31.569Z,0
2016-11-23T06:11:40.565Z,0
2016-11-23T06:12:49.583Z,0
2016-11-23T06:13:58.284Z,0
2016-11-23T06:15:06.985Z,4
2016-11-23T06:16:15.985Z,4
2016-11-23T06:17:24.678Z,4
2016-11-23T06:18:33.680Z,4
2016-11-23T06:19:42.369Z,4
2016-11-23T06:20:51.062Z,4
2016-11-23T06:22:00.099Z,4
2016-11-23T06:23:09.106Z,4
2016-11-23T06:24:17.799Z,4
2016-11-23T06:25:27.103Z,4
2016-11-23T06:26:36.119Z,4
2016-11-23T06:27:44.801Z,4
2016-11-23T06:28:54.113Z,4
2016-11-23T06:30:02.804Z,4
2016-11-23T06:31:12.111Z,4
2016-11-23T06:32:21.414Z,4
2016-11-23T06:33:30.101Z,4
2016-11-23T06:34:39.099Z,4
2016-11-23T06:35:48.081Z,4
2016-11-23T06:36:56.772Z,4
2016-11-23T06:38:05.763Z,4
2016-11-23T06:39:15.111Z,4
2016-11-23T06:40:24.750Z,4
2016-11-23T06:41:34.045Z,4
2016-11-23T06:42:43.036Z,4
2016-11-23T06:43:52.057Z,4
2016-11-23T06:45:01.227Z,8
2016-11-23T06:46:09.918Z,8
2016-11-23T06:47:18.601Z,8
2016-11-23T06:48:27.927Z,8
2016-11-23T06:49:36.945Z,4
2016-11-23T06:50:46.650Z,8
2016-11-23T06:51:55.403Z,4
2016-11-23T06:53:04.396Z,8
2016-11-23T06:54:13.094Z,8
2016-11-23T06:55:22.113Z,8
2016-11-23T06:56:31.104Z,12
2016-11-23T06:57:40.410Z,12
2016-11-23T06:58:49.418Z,12
2016-11-23T06:59:58.174Z,12
2016-11-23T07:01:06.869Z,16
2016-11-23T07:02:16.184Z,16
2016-11-23T07:03:25.186Z,16
2016-11-23T07:04:34.512Z,24
2016-11-23T07:05:43.225Z,24
2016-11-23T07:06:52.542Z,28
2016-11-23T07:08:02.159Z,28
2016-11-23T07:09:11.181Z,28
2016-11-23T07:10:19.897Z,28
2016-11-23T07:11:29.226Z,32
2016-11-23T07:12:38.244Z,36
2016-11-23T07:13:47.562Z,40
2016-11-23T07:14:56.291Z,40
2016-11-23T07:16:05.001Z,48
2016-11-23T07:17:14.634Z,56
2016-11-23T07:18:24.261Z,56
2016-11-23T07:19:32.965Z,64
2016-11-23T07:20:41.997Z,64
2016-11-23T07:21:50.718Z,76
2016-11-23T07:22:59.784Z,84
2016-11-23T07:24:08.477Z,92
2016-11-23T07:25:17.486Z,96
2016-11-23T07:26:26.818Z,104
2016-11-23T07:27:35.825Z,116
2016-11-23T07:28:45.448Z,124
2016-11-23T07:29:54.458Z,132
2016-11-23T07:31:03.484Z,140
2016-11-23T07:32:12.541Z,148
2016-11-23T07:33:21.599Z,156
2016-11-23T07:34:31.534Z,160
2016-11-23T07:35:40.852Z,168
2016-11-23T07:36:49.568Z,176
2016-11-23T07:37:59.001Z,176
2016-11-23T07:39:07.708Z,184
2016-11-23T07:40:16.402Z,192
2016-11-23T07:41:25.734Z,200
2016-11-23T07:42:34.766Z,208
2016-11-23T07:43:43.774Z,220
2016-11-23T07:44:52.777Z,232
2016-11-23T07:46:02.472Z,236
2016-11-23T07:47:11.795Z,248
2016-11-23T07:48:20.503Z,256
2016-11-23T07:49:29.196Z,264
2016-11-23T07:50:37.918Z,276
2016-11-23T07:51:46.932Z,284
2016-11-23T07:52:55.962Z,292
2016-11-23T07:54:04.684Z,300
2016-11-23T07:55:13.679Z,312
2016-11-23T07:56:22.666Z,324
2016-11-23T07:57:31.384Z,332
2016-11-23T07:58:41.002Z,340
2016-11-23T07:59:50.337Z,352
2016-11-23T08:00:59.337Z,360
2016-11-23T08:02:08.385Z,364
2016-11-23T08:03:17.431Z,376
2016-11-23T08:04:26.147Z,380
2016-11-23T08:05:35.482Z,380
2016-11-23T08:06:44.800Z,392
2016-11-23T08:07:53.898Z,396
2016-11-23T08:09:03.238Z,408
2016-11-23T08:10:11.951Z,412
2016-11-23T08:11:21.285Z,412
2016-11-23T08:12:30.087Z,408
2016-11-23T08:13:39.394Z,420
2016-11-23T08:14:48.113Z,436
2016-11-23T08:15:57.130Z,452
2016-11-23T08:17:07.064Z,472
2016-11-23T08:18:15.802Z,480
2016-11-23T08:19:25.778Z,488
2016-11-23T08:20:34.497Z,500
2016-11-23T08:21:43.195Z,512
2016-11-23T08:22:51.915Z,528
2016-11-23T08:24:00.923Z,544
2016-11-23T08:25:10.248Z,552
2016-11-23T08:26:18.997Z,564
2016-11-23T08:27:28.332Z,568
2016-11-23T08:28:37.371Z,580
2016-11-23T08:29:46.675Z,584
2016-11-23T08:30:55.977Z,584
2016-11-23T08:32:04.998Z,588
2016-11-23T08:33:14.315Z,584
2016-11-23T08:34:23.349Z,584
2016-11-23T08:35:32.984Z,588
2016-11-23T08:36:41.698Z,584
2016-11-23T08:37:51.021Z,588
2016-11-23T08:39:00.966Z,588
2016-11-23T08:40:09.684Z,596
2016-11-23T08:41:19.304Z,604
2016-11-23T08:42:28.937Z,612
2016-11-23T08:43:37.653Z,620
2016-11-23T08:44:46.380Z,624
2016-11-23T08:45:55.394Z,628
2016-11-23T08:47:04.112Z,632
2016-11-23T08:48:12.845Z,640
2016-11-23T08:49:21.869Z,648
2016-11-23T08:50:31.182Z,660
2016-11-23T08:51:39.887Z,668
2016-11-23T08:52:48.591Z,684
2016-11-23T08:53:57.287Z,696
2016-11-23T08:55:06.008Z,708
2016-11-23T08:56:15.311Z,716
2016-11-23T08:57:23.993Z,708
2016-11-23T08:58:33.319Z,692
2016-11-23T08:59:42.339Z,668
2016-11-23T09:00:51.364Z,644
2016-11-23T09:02:00.074Z,628
2016-11-23T09:03:08.802Z,636
2016-11-23T09:04:17.512Z,636
2016-11-23T09:05:26.534Z,640
2016-11-23T09:06:35.554Z,624
2016-11-23T09:07:44.283Z,608
2016-11-23T09:08:53.603Z,576
2016-11-23T09:10:02.313Z,564
2016-11-23T09:11:11.372Z,556
2016-11-23T09:12:20.716Z,544
2016-11-23T09:13:29.782Z,540
2016-11-23T09:14:38.790Z,528
2016-11-23T09:15:47.530Z,524
2016-11-23T09:16:56.252Z,504
2016-11-23T09:18:05.240Z,480
2016-11-23T09:19:14.242Z,472
2016-11-23T09:20:23.868Z,460
2016-11-23T09:21:32.869Z,432
2016-11-23T09:22:41.905Z,416
2016-11-23T09:23:50.936Z,420
2016-11-23T09:25:00.308Z,416
2016-11-23T09:26:09.048Z,404
2016-11-23T09:27:18.347Z,408
2016-11-23T09:28:27.374Z,404
2016-11-23T09:29:36.096Z,408
2016-11-23T09:30:45.746Z,412
2016-11-23T09:31:54.816Z,428
2016-11-23T09:33:03.867Z,428
2016-11-23T09:34:12.865Z,428
2016-11-23T09:35:22.229Z,420
2016-11-23T09:36:32.163Z,404
2016-11-23T09:37:40.898Z,400
2016-11-23T09:38:50.525Z,404
2016-11-23T09:39:59.544Z,404
2016-11-23T09:41:08.579Z,400
2016-11-23T09:42:17.985Z,396
2016-11-23T09:43:27.332Z,388
2016-11-23T09:44:37.302Z,380
2016-11-23T09:45:46.627Z,376
2016-11-23T09:46:55.319Z,380
2016-11-23T09:48:04.353Z,380
2016-11-23T09:49:13.068Z,388
2016-11-23T09:50:22.094Z,400
2016-11-23T09:51:31.096Z,424
2016-11-23T09:52:40.107Z,448
2016-11-23T09:53:48.820Z,464
2016-11-23T09:54:58.148Z,460
2016-11-23T09:56:07.177Z,452
2016-11-23T09:57:15.957Z,448
2016-11-23T09:58:25.036Z,444
2016-11-23T09:59:34.098Z,468
2016-11-23T10:00:42.869Z,504
2016-11-23T10:01:51.932Z,520
2016-11-23T10:03:01.253Z,524
2016-11-23T10:04:10.275Z,548
2016-11-23T10:05:19.319Z,572
2016-11-23T10:06:28.667Z,592
2016-11-23T10:07:37.990Z,600
2016-11-23T10:08:46.988Z,620
2016-11-23T10:09:56.287Z,656
2016-11-23T10:11:05.311Z,660
2016-11-23T10:12:14.624Z,660
2016-11-23T10:13:23.645Z,652
2016-11-23T10:14:33.295Z,636
2016-11-23T10:15:42.386Z,628
2016-11-23T10:16:51.390Z,624
2016-11-23T10:18:00.717Z,620
2016-11-23T10:19:10.355Z,620
2016-11-23T10:20:19.383Z,628
2016-11-23T10:21:28.707Z,632
2016-11-23T10:22:38.025Z,636
2016-11-23T10:23:47.059Z,636
2016-11-23T10:24:56.368Z,648
2016-11-23T10:26:05.076Z,652
2016-11-23T10:27:14.413Z,628
2016-11-23T10:28:23.171Z,604
2016-11-23T10:29:31.884Z,584
2016-11-23T10:30:40.889Z,560
2016-11-23T10:31:49.614Z,528
2016-11-23T10:32:58.670Z,512
2016-11-23T10:34:07.398Z,500
2016-11-23T10:35:16.736Z,500
2016-11-23T10:36:25.462Z,508
2016-11-23T10:37:34.493Z,504
2016-11-23T10:38:43.502Z,484
2016-11-23T10:39:52.816Z,472
2016-11-23T10:41:01.897Z,484
2016-11-23T10:42:10.906Z,492
2016-11-23T10:43:20.238Z,496
2016-11-23T10:44:29.270Z,500
2016-11-23T10:45:38.276Z,524
2016-11-23T10:46:47.314Z,556
2016-11-23T10:47:56.719Z,588
2016-11-23T10:49:06.354Z,604
2016-11-23T10:50:15.705Z,588
2016-11-23T10:51:24.732Z,572
2016-11-23T10:52:33.470Z,596
2016-11-23T10:53:42.469Z,656
2016-11-23T10:54:51.242Z,720
2016-11-23T10:56:00.274Z,776
2016-11-23T10:57:08.981Z,804
2016-11-23T10:58:18.021Z,824
2016-11-23T10:59:27.049Z,848
2016-11-23T11:00:36.966Z,864
2016-11-23T11:01:45.697Z,888
2016-11-23T11:02:55.312Z,892
2016-11-23T11:04:04.010Z,916
2016-11-23T11:05:12.732Z,944
2016-11-23T11:06:22.652Z,1000
2016-11-23T11:07:31.644Z,1024
2016-11-23T11:08:40.963Z,1052
2016-11-23T11:09:50.903Z,1056
2016-11-23T11:10:59.642Z,1028
2016-11-23T11:12:08.653Z,1016
2016-11-23T11:13:17.712Z,1008
2016-11-23T11:14:26.733Z,980
2016-11-23T11:15:35.443Z,960
2016-11-23T11:16:45.116Z,960
2016-11-23T11:17:53.859Z,996
2016-11-23T11:19:02.594Z,1088
2016-11-23T11:20:12.240Z,1168
2016-11-23T11:21:21.313Z,1204
2016-11-23T11:22:30.333Z,1208
2016-11-23T11:23:39.659Z,1184
2016-11-23T11:24:49.011Z,1180
2016-11-23T11:25:58.365Z,1176
2016-11-23T11:27:07.411Z,1200
2016-11-23T11:28:16.439Z,1220
2016-11-23T11:29:26.104Z,1200
2016-11-23T11:30:35.427Z,1200
2016-11-23T11:31:44.480Z,1180
2016-11-23T11:32:53.192Z,1132
2016-11-23T11:34:02.512Z,1072
2016-11-23T11:35:11.855Z,1008
2016-11-23T11:36:20.881Z,928
2016-11-23T11:37:29.590Z,852
2016-11-23T11:38:38.295Z,804
2016-11-23T11:39:47.929Z,760
2016-11-23T11:40:57.316Z,724
2016-11-23T11:42:06.361Z,708
2016-11-23T11:43:15.374Z,712
2016-11-23T11:44:24.083Z,736
2016-11-23T11:45:33.089Z,792
2016-11-23T11:46:42.461Z,844
2016-11-23T11:47:51.159Z,888
2016-11-23T11:49:00.160Z,920
2016-11-23T11:50:09.484Z,920
2016-11-23T11:51:18.480Z,916
2016-11-23T11:52:27.174Z,924
2016-11-23T11:53:36.195Z,936
2016-11-23T11:54:45.595Z,940
2016-11-23T11:55:54.681Z,936
2016-11-23T11:57:26.137Z,916
2016-11-23T11:58:35.484Z,928
2016-11-23T11:59:44.503Z,932
2016-11-23T12:00:53.221Z,948
2016-11-23T12:02:02.268Z,968
2016-11-23T12:03:11.310Z,1008
2016-11-23T12:04:20.638Z,992
2016-11-23T12:05:29.654Z,1032
2016-11-23T12:06:38.674Z,1064
2016-11-23T12:07:47.694Z,1088
2016-11-23T12:08:57.038Z,1112
2016-11-23T12:10:06.400Z,1056
2016-11-23T12:11:15.419Z,964
2016-11-23T12:12:24.419Z,896
2016-11-23T12:13:33.742Z,836
2016-11-23T12:14:42.764Z,772
2016-11-23T12:15:52.075Z,716
2016-11-23T12:17:00.792Z,664
2016-11-23T12:18:10.105Z,616
2016-11-23T12:19:19.426Z,572
2016-11-23T12:20:28.461Z,544
2016-11-23T12:21:37.187Z,532
2016-11-23T12:22:45.927Z,532
2016-11-23T12:23:55.577Z,540
2016-11-23T12:25:04.291Z,552
2016-11-23T12:26:13.317Z,576
2016-11-23T12:27:22.023Z,608
2016-11-23T12:28:31.040Z,636
2016-11-23T12:29:39.767Z,656
2016-11-23T12:30:48.811Z,672
2016-11-23T12:31:57.545Z,672
2016-11-23T12:33:06.248Z,668
2016-11-23T12:34:15.879Z,676
2016-11-23T12:35:26.129Z,676
2016-11-23T12:36:35.151Z,672
2016-11-23T12:37:44.776Z,660
2016-11-23T12:38:54.098Z,636
2016-11-23T12:40:03.444Z,608
2016-11-23T12:41:12.487Z,596
2016-11-23T12:42:21.261Z,596
2016-11-23T12:43:30.580Z,596
2016-11-23T12:44:39.938Z,612
2016-11-23T12:45:48.648Z,640
2016-11-23T12:46:57.971Z,672
2016-11-23T12:48:07.351Z,692
2016-11-23T12:49:16.683Z,696
2016-11-23T12:50:25.420Z,712
2016-11-23T12:51:34.211Z,740
2016-11-23T12:52:43.239Z,748
2016-11-23T12:53:52.246Z,752
2016-11-23T12:55:00.953Z,780
2016-11-23T12:56:10.276Z,796
2016-11-23T12:57:18.985Z,788
2016-11-23T12:58:27.974Z,748
2016-11-23T12:59:37.303Z,728
2016-11-23T13:00:46.323Z,752
2016-11-23T13:01:55.345Z,728
2016-11-23T13:03:04.381Z,720
2016-11-23T13:04:13.107Z,712
2016-11-23T13:05:22.127Z,700
2016-11-23T13:06:30.842Z,700
2016-11-23T13:07:39.842Z,704
2016-11-23T13:08:49.162Z,708
2016-11-23T13:09:58.182Z,724
2016-11-23T13:11:07.201Z,732
2016-11-23T13:12:16.247Z,728
2016-11-23T13:13:25.625Z,732
2016-11-23T13:14:34.952Z,740
2016-11-23T13:15:43.694Z,728
2016-11-23T13:16:53.021Z,744
2016-11-23T13:18:02.086Z,752
2016-11-23T13:19:10.814Z,712
2016-11-23T13:20:19.529Z,708
2016-11-23T13:21:28.827Z,728
2016-11-23T13:22:38.161Z,668
2016-11-23T13:23:47.511Z,660
2016-11-23T13:24:56.531Z,636
2016-11-23T13:26:05.869Z,624
2016-11-23T13:27:14.595Z,596
2016-11-23T13:28:23.674Z,576
2016-11-23T13:29:32.381Z,548
2016-11-23T13:30:41.399Z,528
2016-11-23T13:31:50.441Z,500
2016-11-23T13:32:59.463Z,504
2016-11-23T13:34:08.195Z,548
2016-11-23T13:35:17.517Z,572
2016-11-23T13:36:26.881Z,560
2016-11-23T13:37:35.889Z,544
2016-11-23T13:38:45.500Z,544
2016-11-23T13:39:54.819Z,572
2016-11-23T13:41:03.531Z,548
2016-11-23T13:42:12.535Z,548
2016-11-23T13:43:21.835Z,540
2016-11-23T13:44:30.853Z,528
2016-11-23T13:45:39.860Z,508
2016-11-23T13:46:48.604Z,496
2016-11-23T13:47:57.339Z,476
2016-11-23T13:49:06.686Z,460
2016-11-23T13:50:15.744Z,452
2016-11-23T13:51:24.464Z,456
2016-11-23T13:52:33.513Z,452
2016-11-23T13:53:42.839Z,456
2016-11-23T13:54:51.551Z,448
2016-11-23T13:56:00.565Z,440
2016-11-23T13:57:09.277Z,452
2016-11-23T13:58:18.597Z,484
2016-11-23T13:59:27.610Z,516
2016-11-23T14:00:36.629Z,556
2016-11-23T14:01:45.953Z,560
2016-11-23T14:02:55.285Z,492
2016-11-23T14:04:04.611Z,452
2016-11-23T14:05:13.629Z,420
2016-11-23T14:06:22.339Z,396
2016-11-23T14:07:31.358Z,380
2016-11-23T14:08:40.465Z,368
2016-11-23T14:09:49.781Z,364
2016-11-23T14:10:58.803Z,364
2016-11-23T14:12:07.525Z,376
2016-11-23T14:13:16.540Z,388
2016-11-23T14:14:25.263Z,392
2016-11-23T14:15:34.290Z,416
2016-11-23T14:16:43.308Z,448
2016-11-23T14:17:52.014Z,480
2016-11-23T14:19:00.718Z,504
2016-11-23T14:20:09.719Z,516
2016-11-23T14:21:18.751Z,516
2016-11-23T14:22:27.793Z,500
2016-11-23T14:23:37.124Z,480
2016-11-23T14:24:46.437Z,444
2016-11-23T14:25:55.161Z,408
2016-11-23T14:27:04.171Z,388
2016-11-23T14:28:13.186Z,368
2016-11-23T14:29:22.234Z,360
2016-11-23T14:30:30.967Z,352
2016-11-23T14:31:40.306Z,336
2016-11-23T14:32:49.023Z,324
2016-11-23T14:33:58.350Z,320
2016-11-23T14:35:07.367Z,312
2016-11-23T14:36:16.413Z,300
2016-11-23T14:37:25.732Z,288
2016-11-23T14:38:35.057Z,280
2016-11-23T14:39:43.777Z,272
2016-11-23T14:40:53.131Z,268
2016-11-23T14:42:01.858Z,264
2016-11-23T14:43:10.585Z,264
2016-11-23T14:44:19.908Z,256
2016-11-23T14:45:28.928Z,248
2016-11-23T14:46:38.564Z,244
2016-11-23T14:47:47.282Z,240
2016-11-23T14:48:56.312Z,232
2016-11-23T14:50:06.239Z,228
2016-11-23T14:51:14.950Z,220
2016-11-23T14:52:23.655Z,212
2016-11-23T14:53:32.976Z,208
2016-11-23T14:54:41.674Z,200
2016-11-23T14:55:51.000Z,196
2016-11-23T14:57:00.017Z,192
2016-11-23T14:58:09.081Z,184
2016-11-23T14:59:18.119Z,180
2016-11-23T15:00:27.818Z,176
2016-11-23T15:01:36.545Z,168
2016-11-23T15:02:45.584Z,164
2016-11-23T15:03:54.599Z,160
2016-11-23T15:05:03.980Z,152
2016-11-23T15:06:12.998Z,148
2016-11-23T15:07:22.019Z,140
2016-11-23T15:08:31.653Z,136
2016-11-23T15:09:40.691Z,128
2016-11-23T15:10:49.409Z,120
2016-11-23T15:11:58.153Z,112
2016-11-23T15:13:07.172Z,108
2016-11-23T15:14:16.816Z,104
2016-11-23T15:15:25.492Z,96
2016-11-23T15:16:34.803Z,92
2016-11-23T15:17:43.492Z,84
2016-11-23T15:18:52.183Z,80
2016-11-23T15:20:01.478Z,72
2016-11-23T15:21:10.485Z,68
2016-11-23T15:22:19.513Z,64
2016-11-23T15:23:28.543Z,56
2016-11-23T15:24:37.575Z,56
2016-11-23T15:25:46.886Z,48
2016-11-23T15:26:56.514Z,48
2016-11-23T15:28:05.835Z,44
2016-11-23T15:29:15.175Z,40
2016-11-23T15:30:24.813Z,40
2016-11-23T15:31:33.541Z,32
2016-11-23T15:32:42.572Z,32
2016-11-23T15:33:51.593Z,28
2016-11-23T15:35:00.647Z,28
2016-11-23T15:36:10.276Z,28
2016-11-23T15:37:19.370Z,24
2016-11-23T15:38:28.711Z,24
2016-11-23T15:39:38.336Z,20
2016-11-23T15:40:48.284Z,16
2016-11-23T15:41:57.308Z,12
2016-11-23T15:43:06.311Z,16
2016-11-23T15:44:15.040Z,12
2016-11-23T15:45:24.078Z,8
2016-11-23T15:46:33.138Z,8
2016-11-23T15:47:42.197Z,4
2016-11-23T15:48:50.923Z,8
2016-11-23T15:50:00.540Z,4
2016-11-23T15:51:10.167Z,4
2016-11-23T15:52:18.866Z,4
2016-11-23T15:53:28.179Z,4
2016-11-23T15:54:37.905Z,4
2016-11-23T15:55:46.926Z,0
2016-11-23T15:56:55.626Z,0
2016-11-23T15:58:04.627Z,0
2016-11-23T15:59:13.341Z,0
2016-11-23T16:00:22.344Z,0
2016-11-23T16:01:31.371Z,0
2016-11-23T16:02:41.034Z,0
2016-11-23T16:03:50.673Z,0
2016-11-23T16:04:59.696Z,0
2016-11-23T16:06:09.024Z,0
2016-11-23T16:07:18.042Z,0
2016-11-23T16:08:27.041Z,0
2016-11-23T16:09:36.447Z,0
2016-11-23T16:10:45.184Z,0
2016-11-23T16:11:53.900Z,0
2016-11-23T16:13:02.893Z,0
2016-11-23T16:14:11.924Z,0
2016-11-23T16:15:21.245Z,0
2016-11-23T16:16:29.956Z,0
2016-11-23T16:17:38.984Z,0
2016-11-23T16:18:48.002Z,0
2016-11-23T16:19:56.708Z,0
2016-11-23T16:21:05.426Z,0
2016-11-23T16:22:14.128Z,0
2016-11-23T16:23:23.452Z,0
2016-11-23T16:24:32.492Z,0